Time;durP1;ratioP1;P1;durP2;ratioP2;P2;SDS_P1;SDS_P2;PMS_P1;PMS_P2;Temp;Humidity;BMP_temperature;BMP_pressure;BME280_temperature;BME280_humidity;BME280_pressure;Samples;Min_cycle;Max_cycle;Signal;HPM_P1;HPM_P2
2022/05/26 00:00:37;;;;;;;1.25;1.23;;;;;;;-145.23;100.00;58621.06;5021435;28;20256;-52
2022/05/26 00:03:04;;;;;;;1.65;1.55;;;;;;;-145.23;100.00;58621.06;5024248;28;20228;-53
2022/05/26 00:05:30;;;;;;;1.60;1.50;;;;;;;-145.23;100.00;58621.06;5018928;28;20730;-52
2022/05/26 00:07:58;;;;;;;2.42;1.20;;;;;;;-145.23;100.00;58621.06;5014255;28;20225;-52
2022/05/26 00:10:24;;;;;;;1.35;1.25;;;;;;;-145.23;100.00;58621.06;5018965;28;20371;-52
2022/05/26 00:12:50;;;;;;;1.50;1.35;;;;;;;-145.23;100.00;58621.06;5020550;28;20244;-52
2022/05/26 00:15:17;;;;;;;1.50;1.40;;;;;;;-145.23;100.00;58621.06;5018752;28;20275;-52
2022/05/26 00:17:43;;;;;;;1.92;1.50;;;;;;;-145.23;100.00;58621.06;5009737;28;20233;-52
2022/05/26 00:20:11;;;;;;;1.45;1.35;;;;;;;-145.23;100.00;58621.06;5015999;28;20328;-53
2022/05/26 00:22:37;;;;;;;1.38;1.23;;;;;;;-145.23;100.00;58621.06;5023320;28;20229;-54
2022/05/26 00:25:06;;;;;;;4.00;1.40;;;;;;;-145.23;100.00;58621.06;5007592;28;20249;-52
2022/05/26 00:27:32;;;;;;;5.15;1.10;;;;;;;-145.23;100.00;58621.06;5014988;28;20712;-52
2022/05/26 00:29:58;;;;;;;1.55;1.45;;;;;;;-145.23;100.00;58621.06;5016734;28;20275;-52
2022/05/26 00:32:25;;;;;;;1.30;1.20;;;;;;;-145.23;100.00;58621.06;5018166;28;20631;-52
2022/05/26 00:34:51;;;;;;;1.40;1.30;;;;;;;-145.23;100.00;58621.06;5013807;28;20708;-52
2022/05/26 00:37:17;;;;;;;1.20;1.10;;;;;;;-145.23;100.00;58621.06;5019784;28;20265;-53
2022/05/26 00:39:44;;;;;;;2.65;1.10;;;;;;;-145.23;100.00;58621.06;5019928;28;20260;-52
2022/05/26 00:42:11;;;;;;;2.05;1.20;;;;;;;-145.23;100.00;58621.06;5018830;28;20241;-51
2022/05/26 00:44:38;;;;;;;4.10;1.65;;;;;;;-145.23;100.00;58621.06;5019286;28;20257;-53
2022/05/26 00:47:09;;;;;;;2.22;1.50;;;;;;;-145.23;100.00;58621.06;5014859;28;20233;-52
2022/05/26 00:49:40;;;;;;;2.13;1.45;;;;;;;-145.23;100.00;58621.06;5008805;28;20225;-52
2022/05/26 00:52:08;;;;;;;4.13;1.40;;;;;;;-145.23;100.00;58621.06;5010797;28;20240;-52
2022/05/26 00:54:34;;;;;;;1.40;1.30;;;;;;;-145.23;100.00;58621.06;5019431;28;20290;-53
2022/05/26 00:57:03;;;;;;;2.85;1.40;;;;;;;-145.23;100.00;58621.06;5012734;28;20236;-52
2022/05/26 00:59:38;;;;;;;9.70;1.98;;;;;;;-145.23;100.00;58621.06;5012653;28;20542;-51
2022/05/26 01:02:06;;;;;;;2.05;1.40;;;;;;;-145.23;100.00;58621.06;5014624;28;20239;-52
2022/05/26 01:04:37;;;;;;;1.50;1.33;;;;;;;-145.23;100.00;58621.06;5016582;28;20319;-58
2022/05/26 01:07:10;;;;;;;1.50;1.30;;;;;;;-145.23;100.00;58621.06;5015494;28;20248;-53
2022/05/26 01:09:36;;;;;;;3.95;1.23;;;;;;;-145.23;100.00;58621.06;5017627;28;20228;-52
2022/05/26 01:12:03;;;;;;;1.15;1.15;;;;;;;-145.23;100.00;58621.06;5013954;28;20719;-52
2022/05/26 01:14:34;;;;;;;1.83;1.60;;;;;;;-145.23;100.00;58621.06;5013732;28;20318;-53
2022/05/26 01:17:07;;;;;;;1.33;1.15;;;;;;;-145.23;100.00;58621.06;5022605;28;20245;-53
2022/05/26 01:20:10;;;;;;;3.30;1.45;;;;;;;-145.23;100.00;58621.06;5006172;28;20320;-52
2022/05/26 01:22:51;;;;;;;2.60;1.40;;;;;;;-145.23;100.00;58621.06;5012308;28;20687;-56
2022/05/26 01:25:40;;;;;;;1.63;1.52;;;;;;;-145.23;100.00;58621.06;5017573;28;20237;-52
2022/05/26 01:28:20;;;;;;;1.67;1.00;;;;;;;-145.23;100.00;58621.06;5015319;28;20317;-52
2022/05/26 01:30:52;;;;;;;1.40;1.30;;;;;;;-145.23;100.00;58621.06;5016544;28;20240;-51
2022/05/26 01:33:37;;;;;;;1.00;1.00;;;;;;;-145.23;100.00;58621.06;5016394;28;20544;-53
2022/05/26 01:36:13;;;;;;;2.08;1.15;;;;;;;-145.23;100.00;58621.06;5018066;28;20235;-52
2022/05/26 01:38:48;;;;;;;1.50;1.40;;;;;;;-145.23;100.00;58621.06;5016988;28;20615;-63
2022/05/26 01:41:21;;;;;;;2.05;1.33;;;;;;;-145.23;100.00;58621.06;5015077;28;20512;-51
2022/05/26 01:43:54;;;;;;;1.73;1.15;;;;;;;-145.23;100.00;58621.06;5020805;28;20610;-54
2022/05/26 01:46:25;;;;;;;1.63;1.52;;;;;;;-145.23;100.00;58621.06;5016223;28;20655;-52
2022/05/26 01:48:56;;;;;;;1.23;1.13;;;;;;;-145.23;100.00;58621.06;5023430;28;20256;-53
2022/05/26 01:51:27;;;;;;;1.63;1.52;;;;;;;-145.23;100.00;58621.06;5011827;28;20641;-53
2022/05/26 01:54:02;;;;;;;2.40;1.10;;;;;;;-145.23;100.00;58621.06;5016816;28;20237;-53
2022/05/26 01:56:33;;;;;;;0.80;0.80;;;;;;;-145.23;100.00;58621.06;5020551;28;20257;-52
2022/05/26 01:59:05;;;;;;;2.65;1.70;;;;;;;-145.23;100.00;58621.06;5009444;28;20245;-51
2022/05/26 02:01:35;;;;;;;1.10;1.00;;;;;;;-145.23;100.00;58621.06;5018355;28;20295;-51
2022/05/26 02:04:08;;;;;;;1.67;1.10;;;;;;;-145.23;100.00;58621.06;5015524;28;20249;-52
2022/05/26 02:06:38;;;;;;;1.27;1.25;;;;;;;-145.23;100.00;58621.06;5023450;28;20233;-52
2022/05/26 02:09:07;;;;;;;1.38;1.00;;;;;;;-145.23;100.00;58621.06;5020382;28;20499;-51
2022/05/26 02:11:34;;;;;;;4.78;1.25;;;;;;;-145.23;100.00;58621.06;5017951;28;20253;-51
2022/05/26 02:14:03;;;;;;;0.98;0.98;;;;;;;-145.23;100.00;58621.06;5024440;28;20315;-51
2022/05/26 02:16:34;;;;;;;1.00;0.90;;;;;;;-145.23;100.00;58621.06;5012849;28;20233;-53
2022/05/26 02:19:07;;;;;;;1.55;0.80;;;;;;;-145.23;100.00;58621.06;5024455;28;20663;-52
2022/05/26 02:21:37;;;;;;;1.40;1.00;;;;;;;-145.23;100.00;58621.06;5017524;28;20229;-54
2022/05/26 02:24:08;;;;;;;2.60;0.80;;;;;;;-145.23;100.00;58621.06;5018703;28;20604;-51
2022/05/26 02:26:36;;;;;;;0.70;0.70;;;;;;;-145.23;100.00;58621.06;5016522;28;20232;-52
2022/05/26 02:31:48;;;;;;;0.80;0.77;;;;;;;-145.23;100.00;58621.06;5027567;28;21053;-52
2022/05/26 02:34:18;;;;;;;1.33;1.10;;;;;;;-145.23;100.00;58621.06;5019976;28;20248;-56
2022/05/26 02:36:45;;;;;;;4.05;0.98;;;;;;;-145.23;100.00;58621.06;5022281;28;20243;-52
2022/05/26 02:39:11;;;;;;;1.00;1.00;;;;;;;-145.23;100.00;58621.06;5014332;28;20229;-51
2022/05/26 02:41:39;;;;;;;1.00;0.90;;;;;;;-145.23;100.00;58621.06;5030087;28;20241;-51
2022/05/26 02:44:06;;;;;;;2.17;1.00;;;;;;;-145.23;100.00;58621.06;5023350;28;20255;-51
2022/05/26 02:46:45;;;;;;;2.88;1.00;;;;;;;-145.23;100.00;58621.06;5021627;28;20291;-51
2022/05/26 02:49:22;;;;;;;3.88;1.00;;;;;;;-145.23;100.00;58621.06;5013537;28;20225;-52
2022/05/26 02:51:53;;;;;;;2.38;0.95;;;;;;;-145.23;100.00;58621.06;5026155;28;20232;-52
2022/05/26 02:54:25;;;;;;;1.90;1.10;;;;;;;-145.23;100.00;58621.06;5012334;28;20229;-52
2022/05/26 02:56:57;;;;;;;3.20;1.15;;;;;;;-145.23;100.00;58621.06;5018646;28;20271;-54
2022/05/26 02:59:30;;;;;;;4.65;0.90;;;;;;;-145.23;100.00;58621.06;5025592;28;20319;-53
2022/05/26 03:01:59;;;;;;;1.60;1.10;;;;;;;-145.23;100.00;58621.06;5020128;28;20283;-52
2022/05/26 03:04:32;;;;;;;1.30;1.20;;;;;;;-145.23;100.00;58621.06;5027345;28;20302;-54
2022/05/26 03:07:00;;;;;;;1.23;0.95;;;;;;;-145.23;100.00;58621.06;5026471;28;20572;-53
2022/05/26 03:09:27;;;;;;;2.33;1.05;;;;;;;-145.23;100.00;58621.06;5017986;28;20240;-53
2022/05/26 03:11:56;;;;;;;0.93;0.73;;;;;;;-145.23;100.00;58621.06;5027173;28;20241;-53
2022/05/26 03:14:23;;;;;;;2.65;0.90;;;;;;;-145.23;100.00;58621.06;5018369;28;20969;-54
2022/05/26 03:16:50;;;;;;;2.20;1.05;;;;;;;-145.23;100.00;58621.06;5025901;28;20581;-51
2022/05/26 03:19:16;;;;;;;2.10;0.90;;;;;;;-145.23;100.00;58621.06;5022475;28;20290;-53
2022/05/26 03:21:45;;;;;;;1.08;0.98;;;;;;;-145.23;100.00;58621.06;5013548;28;20244;-52
2022/05/26 03:24:11;;;;;;;1.15;1.05;;;;;;;-145.23;100.00;58621.06;5018899;28;20244;-53
2022/05/26 03:26:38;;;;;;;1.17;0.93;;;;;;;-145.23;100.00;58621.06;5018780;28;20295;-51
2022/05/26 03:29:04;;;;;;;3.10;1.40;;;;;;;-145.23;100.00;58621.06;5018195;28;20282;-52
2022/05/26 03:31:31;;;;;;;3.22;1.30;;;;;;;-145.23;100.00;58621.06;5026597;28;20244;-52
2022/05/26 03:42:13;;;;;;;3.20;0.98;;;;;;;-145.23;100.00;58621.06;5015411;28;20718;-53
2022/05/26 03:44:39;;;;;;;1.17;1.08;;;;;;;-145.23;100.00;58621.06;5020545;28;20249;-55
2022/05/26 03:47:06;;;;;;;1.48;1.20;;;;;;;-145.23;100.00;58621.06;5017480;28;20241;-53
2022/05/26 03:49:33;;;;;;;2.47;0.95;;;;;;;-145.23;100.00;58621.06;5007244;28;20241;-53
2022/05/26 03:51:59;;;;;;;1.10;1.00;;;;;;;-145.23;100.00;58621.06;5023051;28;20229;-52
2022/05/26 03:54:27;;;;;;;2.58;1.15;;;;;;;-145.23;100.00;58621.06;5018515;28;20271;-52
2022/05/26 03:56:53;;;;;;;0.80;0.80;;;;;;;-145.23;100.00;58621.06;5023558;28;20315;-52
2022/05/26 03:59:20;;;;;;;1.25;1.15;;;;;;;-145.23;100.00;58621.06;5019974;28;20240;-52
2022/05/26 04:01:47;;;;;;;2.65;1.40;;;;;;;-145.23;100.00;58621.06;5016001;28;20233;-52
2022/05/26 04:04:14;;;;;;;2.85;1.55;;;;;;;-145.23;100.00;58621.06;5020236;28;20232;-52
2022/05/26 04:06:41;;;;;;;2.20;1.30;;;;;;;-145.23;100.00;58621.06;5019240;28;20229;-60
2022/05/26 04:09:07;;;;;;;2.67;1.38;;;;;;;-145.23;100.00;58621.06;5013584;28;20268;-53
2022/05/26 04:11:35;;;;;;;1.88;1.00;;;;;;;-145.23;100.00;58621.06;5017970;28;20232;-54
2022/05/26 04:14:02;;;;;;;1.33;1.08;;;;;;;-145.23;100.00;58621.06;5021127;28;20259;-53
2022/05/26 04:16:28;;;;;;;2.20;0.90;;;;;;;-145.23;100.00;58621.06;5016984;28;20438;-53
2022/05/26 04:18:55;;;;;;;1.25;1.15;;;;;;;-145.23;100.00;58621.06;5014603;28;20229;-51
2022/05/26 04:21:21;;;;;;;2.38;1.35;;;;;;;-145.23;100.00;58621.06;5015268;28;20264;-54
2022/05/26 04:23:47;;;;;;;1.20;1.00;;;;;;;-145.23;100.00;58621.06;5019066;28;20236;-51
2022/05/26 04:26:14;;;;;;;3.60;1.25;;;;;;;-145.23;100.00;58621.06;5021624;28;20244;-53
2022/05/26 04:28:42;;;;;;;1.20;1.10;;;;;;;-145.23;100.00;58621.06;5006561;28;20324;-58
2022/05/26 04:31:08;;;;;;;2.72;1.65;;;;;;;-145.23;100.00;58621.06;5008566;28;20253;-54
2022/05/26 04:33:34;;;;;;;1.30;1.17;;;;;;;-145.23;100.00;58621.06;5015045;28;20675;-52
2022/05/26 04:36:03;;;;;;;1.52;1.42;;;;;;;-145.23;100.00;58621.06;5017313;28;20224;-52
2022/05/26 04:38:30;;;;;;;1.60;1.25;;;;;;;-145.23;100.00;58621.06;5011783;28;20668;-53
2022/05/26 04:40:57;;;;;;;1.90;1.50;;;;;;;-145.23;100.00;58621.06;5012995;28;20239;-52
2022/05/26 04:43:23;;;;;;;2.10;1.02;;;;;;;-145.23;100.00;58621.06;5021885;28;20233;-53
2022/05/26 04:45:51;;;;;;;4.10;1.85;;;;;;;-145.23;100.00;58621.06;5017936;28;20270;-53
2022/05/26 04:48:21;;;;;;;2.15;1.33;;;;;;;-145.23;100.00;58621.06;5019472;28;20233;-52
2022/05/26 04:50:47;;;;;;;5.50;1.60;;;;;;;-145.23;100.00;58621.06;5026038;28;20295;-52
2022/05/26 04:53:14;;;;;;;3.10;1.67;;;;;;;-145.23;100.00;58621.06;5010416;28;20299;-54
2022/05/26 04:55:40;;;;;;;3.22;1.80;;;;;;;-145.23;100.00;58621.06;5017017;28;20372;-54
2022/05/26 04:58:07;;;;;;;2.58;1.40;;;;;;;-145.23;100.00;58621.06;5026748;28;20228;-54
2022/05/26 05:00:33;;;;;;;2.53;1.60;;;;;;;-145.23;100.00;58621.06;5020563;28;20610;-53
2022/05/26 05:03:01;;;;;;;2.50;1.70;;;;;;;-145.23;100.00;58621.06;5023106;28;20248;-53
2022/05/26 05:05:29;;;;;;;2.08;1.45;;;;;;;-145.23;100.00;58621.06;5011367;28;20237;-52
2022/05/26 05:07:55;;;;;;;5.90;1.80;;;;;;;-145.23;100.00;58621.06;5022634;28;20236;-54
2022/05/26 05:10:22;;;;;;;1.80;1.45;;;;;;;-145.23;100.00;58621.06;5021057;28;20299;-53
2022/05/26 05:12:49;;;;;;;2.58;1.60;;;;;;;-145.23;100.00;58621.06;5023830;28;20232;-55
2022/05/26 05:15:19;;;;;;;1.88;0.98;;;;;;;-145.23;100.00;58621.06;5027264;28;20282;-52
2022/05/26 05:17:45;;;;;;;4.55;1.70;;;;;;;-145.23;100.00;58621.06;5016996;28;20253;-56
2022/05/26 05:20:13;;;;;;;2.80;1.50;;;;;;;-145.23;100.00;58621.06;5018125;28;20260;-59
2022/05/26 05:22:42;;;;;;;1.30;1.27;;;;;;;-145.23;100.00;58621.06;5024075;28;20233;-53
2022/05/26 05:25:12;;;;;;;1.63;1.50;;;;;;;-145.23;100.00;58621.06;5020027;28;20715;-54
2022/05/26 05:27:43;;;;;;;2.88;1.85;;;;;;;-145.23;100.00;58621.06;5024374;28;20228;-60
2022/05/26 05:30:15;;;;;;;1.58;1.45;;;;;;;-145.23;100.00;58621.06;5019671;28;20236;-53
2022/05/26 05:32:44;;;;;;;4.28;2.03;;;;;;;-145.23;100.00;58621.06;5024531;28;20424;-62
2022/05/26 05:35:15;;;;;;;2.60;2.10;;;;;;;-145.23;100.00;58621.06;5015649;28;20260;-51
2022/05/26 05:37:42;;;;;;;2.25;1.75;;;;;;;-145.23;100.00;58621.06;5022046;28;20232;-53
2022/05/26 05:40:09;;;;;;;3.70;1.67;;;;;;;-145.23;100.00;58621.06;5023821;28;20225;-52
2022/05/26 05:42:36;;;;;;;3.00;2.22;;;;;;;-145.23;100.00;58621.06;5023706;28;20244;-52
2022/05/26 05:45:02;;;;;;;1.95;1.85;;;;;;;-145.23;100.00;58621.06;5018854;28;20431;-59
2022/05/26 05:47:29;;;;;;;1.90;1.80;;;;;;;-145.23;100.00;58621.06;5024632;28;20232;-52
2022/05/26 05:49:55;;;;;;;2.28;1.73;;;;;;;-145.23;100.00;58621.06;5016417;28;20229;-52
2022/05/26 05:52:24;;;;;;;2.00;1.65;;;;;;;-145.23;100.00;58621.06;5026818;28;20244;-52
2022/05/26 05:54:51;;;;;;;5.72;2.17;;;;;;;-145.23;100.00;58621.06;5015295;28;20229;-52
2022/05/26 05:57:18;;;;;;;4.07;2.13;;;;;;;-145.23;100.00;58621.06;5022481;28;20326;-55
2022/05/26 05:59:44;;;;;;;3.00;2.58;;;;;;;-145.23;100.00;58621.06;5023230;28;20232;-56
2022/05/26 06:02:10;;;;;;;3.20;2.05;;;;;;;-145.23;100.00;58621.06;5013829;28;20315;-53
2022/05/26 06:04:42;;;;;;;4.05;2.28;;;;;;;-145.23;100.00;58621.06;5025414;28;20594;-57
2022/05/26 06:07:13;;;;;;;3.28;1.90;;;;;;;-145.23;100.00;58621.06;5022500;28;20706;-51
2022/05/26 06:09:41;;;;;;;3.42;2.13;;;;;;;-145.23;100.00;58621.06;5031756;28;20227;-52
2022/05/26 06:12:09;;;;;;;2.65;2.45;;;;;;;-145.23;100.00;58621.06;5018257;28;20782;-51
2022/05/26 06:14:35;;;;;;;3.10;2.55;;;;;;;-145.23;100.00;58621.06;5023511;28;20717;-53
2022/05/26 06:17:01;;;;;;;3.05;2.13;;;;;;;-145.23;100.00;58621.06;5021004;28;20226;-52
2022/05/26 06:19:28;;;;;;;2.08;1.80;;;;;;;-145.23;100.00;58621.06;5018974;28;20232;-53
2022/05/26 06:21:54;;;;;;;4.45;2.53;;;;;;;-145.23;100.00;58621.06;5027737;28;20236;-53
2022/05/26 06:24:25;;;;;;;2.00;1.90;;;;;;;-145.23;100.00;58621.06;5024160;28;20314;-52
2022/05/26 06:26:52;;;;;;;3.08;2.78;;;;;;;-145.23;100.00;58621.06;5023644;28;20220;-52
2022/05/26 06:37:31;;;;;;;2.63;2.42;;;;;;;-145.23;100.00;58621.06;5021626;28;20307;-51
2022/05/26 06:39:57;;;;;;;3.13;2.83;;;;;;;-145.23;100.00;58621.06;5021657;28;20306;-51
2022/05/26 06:42:25;;;;;;;2.40;2.20;;;;;;;-145.23;100.00;58621.06;5025426;28;20322;-53
2022/05/26 06:44:52;;;;;;;3.25;2.63;;;;;;;-145.23;100.00;58621.06;5021572;28;20236;-53
2022/05/26 06:47:20;;;;;;;2.65;2.45;;;;;;;-145.23;100.00;58621.06;5019745;28;20244;-52
2022/05/26 06:49:47;;;;;;;3.97;3.20;;;;;;;-145.23;100.00;58621.06;5023647;28;20220;-51
2022/05/26 06:52:14;;;;;;;4.65;3.08;;;;;;;-145.23;100.00;58621.06;5024965;28;20265;-53
2022/05/26 06:54:43;;;;;;;3.67;3.38;;;;;;;-145.23;100.00;58621.06;5025436;28;20237;-52
2022/05/26 06:57:10;;;;;;;2.70;2.50;;;;;;;-145.23;100.00;58621.06;5019435;28;20609;-54
2022/05/26 06:59:39;;;;;;;4.43;2.83;;;;;;;-145.23;100.00;58621.06;5023373;28;20730;-53
2022/05/26 07:02:07;;;;;;;3.95;3.55;;;;;;;-145.23;100.00;58621.06;5020092;28;20237;-51
2022/05/26 07:04:34;;;;;;;2.97;2.40;;;;;;;-145.23;100.00;58621.06;5020716;28;20803;-53
2022/05/26 07:07:01;;;;;;;4.20;2.75;;;;;;;-145.23;100.00;58621.06;5029139;28;20224;-52
2022/05/26 07:09:28;;;;;;;1.90;1.80;;;;;;;-145.23;100.00;58621.06;5027060;28;20236;-53
2022/05/26 07:11:55;;;;;;;4.22;2.67;;;;;;;-145.23;100.00;58621.06;5025579;28;20228;-52
2022/05/26 07:14:24;;;;;;;3.42;3.10;;;;;;;-145.23;100.00;58621.06;5026024;28;20224;-52
2022/05/26 07:16:52;;;;;;;4.28;3.97;;;;;;;-145.23;100.00;58621.06;5021079;28;20572;-52
2022/05/26 07:19:19;;;;;;;5.78;4.57;;;;;;;-145.23;100.00;58621.06;5022021;28;20609;-52
2022/05/26 07:21:48;;;;;;;3.97;3.67;;;;;;;-145.23;100.00;58621.06;5021855;28;20617;-53
2022/05/26 07:24:17;;;;;;;4.88;4.38;;;;;;;-145.23;100.00;58621.06;5023332;28;20319;-52
2022/05/26 07:26:43;;;;;;;4.07;3.70;;;;;;;-145.23;100.00;58621.06;5011836;28;20236;-54
2022/05/26 07:29:10;;;;;;;4.43;4.13;;;;;;;-145.23;100.00;58621.06;5025501;28;20707;-53
2022/05/26 07:31:37;;;;;;;4.40;4.00;;;;;;;-145.23;100.00;58621.06;5011853;28;20290;-52
2022/05/26 07:34:05;;;;;;;5.05;4.57;;;;;;;-145.23;100.00;58621.06;5016796;28;20320;-52
2022/05/26 07:42:02;;;;;;;6.15;5.65;;;;;;;-145.23;100.00;58621.06;5018766;28;20240;-52
2022/05/26 07:44:32;;;;;;;7.35;6.68;;;;;;;-145.23;100.00;58621.06;5020558;28;20236;-52
2022/05/26 07:46:58;;;;;;;6.57;5.90;;;;;;;-145.23;100.00;58621.06;5022459;28;20307;-53
2022/05/26 07:49:26;;;;;;;5.88;5.45;;;;;;;-145.23;100.00;58621.06;5023919;28;20612;-53
2022/05/26 07:51:52;;;;;;;6.43;5.82;;;;;;;-145.23;100.00;58621.06;5020033;28;20233;-53
2022/05/26 07:54:19;;;;;;;5.75;5.15;;;;;;;-145.23;100.00;58621.06;5013910;28;20323;-51
2022/05/26 07:56:45;;;;;;;5.60;5.20;;;;;;;-145.23;100.00;58621.06;5013855;28;20238;-51
2022/05/26 07:59:12;;;;;;;5.53;5.13;;;;;;;-145.23;100.00;58621.06;5017964;28;20727;-53
2022/05/26 08:01:38;;;;;;;6.55;5.63;;;;;;;-145.23;100.00;58621.06;5024164;28;20794;-54
2022/05/26 08:04:07;;;;;;;6.15;5.65;;;;;;;-145.23;100.00;58621.06;5016721;28;20240;-52
2022/05/26 08:06:35;;;;;;;5.32;4.93;;;;;;;-145.23;100.00;58621.06;5010741;28;20662;-61
2022/05/26 08:09:01;;;;;;;5.20;4.80;;;;;;;-145.23;100.00;58621.06;5018489;28;20235;-53
2022/05/26 08:11:29;;;;;;;4.82;4.53;;;;;;;-145.23;100.00;58621.06;5030436;28;20232;-53
2022/05/26 08:13:56;;;;;;;5.03;4.40;;;;;;;-145.23;100.00;58621.06;5023321;28;20244;-53
2022/05/26 08:16:22;;;;;;;3.55;3.25;;;;;;;-145.23;100.00;58621.06;5020562;28;20233;-54
2022/05/26 08:18:48;;;;;;;5.57;4.22;;;;;;;-145.23;100.00;58621.06;5018201;28;20221;-54
2022/05/26 08:21:18;;;;;;;3.85;3.45;;;;;;;-145.23;100.00;58621.06;5025807;28;20294;-56
2022/05/26 08:23:46;;;;;;;2.88;2.67;;;;;;;-145.23;100.00;58621.06;5020677;28;20236;-53
2022/05/26 08:26:13;;;;;;;3.10;2.90;;;;;;;-145.23;100.00;58621.06;5021415;28;20268;-61
2022/05/26 08:28:39;;;;;;;4.22;3.15;;;;;;;-145.23;100.00;58621.06;5025368;28;20239;-53
2022/05/26 08:31:08;;;;;;;3.28;3.08;;;;;;;-145.23;100.00;58621.06;5018788;28;20267;-53
2022/05/26 08:33:35;;;;;;;3.00;2.80;;;;;;;-145.23;100.00;58621.06;5030069;28;20267;-52
2022/05/26 08:36:02;;;;;;;2.80;2.60;;;;;;;-145.23;100.00;58621.06;5018735;28;20247;-53
2022/05/26 08:38:28;;;;;;;2.25;2.10;;;;;;;-145.23;100.00;58621.06;5018541;28;20235;-54
2022/05/26 08:40:56;;;;;;;2.95;2.75;;;;;;;-145.23;100.00;58621.06;5019889;28;20260;-52
2022/05/26 08:43:25;;;;;;;2.75;1.80;;;;;;;-145.23;100.00;58621.06;5020431;28;20337;-52
2022/05/26 08:45:54;;;;;;;1.52;1.42;;;;;;;-145.23;100.00;58621.06;5023402;28;20726;-58
2022/05/26 08:48:35;;;;;;;2.97;1.48;;;;;;;-145.23;100.00;58621.06;5018250;28;20282;-52
2022/05/26 08:51:03;;;;;;;2.60;1.20;;;;;;;-145.23;100.00;58621.06;5021543;28;20316;-52
2022/05/26 08:53:35;;;;;;;1.17;1.17;;;;;;;-145.23;100.00;58621.06;5016018;28;20318;-53
2022/05/26 08:56:03;;;;;;;1.77;1.25;;;;;;;-145.23;100.00;58621.06;5009864;28;20253;-53
2022/05/26 08:58:34;;;;;;;1.42;1.17;;;;;;;-145.23;100.00;58621.06;5024975;28;20232;-52
2022/05/26 09:01:03;;;;;;;1.13;0.77;;;;;;;-145.23;100.00;58621.06;5025102;28;20816;-53
2022/05/26 09:03:31;;;;;;;4.40;1.30;;;;;;;-145.23;100.00;58621.06;5026317;28;20220;-53
2022/05/26 09:06:01;;;;;;;0.68;0.63;;;;;;;-145.23;100.00;58621.06;5021540;28;20252;-53
2022/05/26 09:14:04;;;;;;;2.05;1.00;;;;;;;-145.23;100.00;58621.06;5017768;28;20244;-52
2022/05/26 09:16:34;;;;;;;0.90;0.90;;;;;;;-145.23;100.00;58621.06;5027144;28;20667;-53
2022/05/26 09:19:11;;;;;;;3.17;0.82;;;;;;;-145.23;100.00;58621.06;5020676;28;20722;-52
2022/05/26 09:21:38;;;;;;;0.90;0.90;;;;;;;-145.23;100.00;58621.06;5021478;28;20846;-52
2022/05/26 09:24:22;;;;;;;1.85;0.95;;;;;;;-145.23;100.00;58621.06;5017663;28;20726;-51
2022/05/26 09:26:55;;;;;;;1.73;1.63;;;;;;;-145.23;100.00;58621.06;5010168;28;20229;-52
2022/05/26 09:29:25;;;;;;;0.98;0.90;;;;;;;-145.23;100.00;58621.06;5022737;28;20248;-52
2022/05/26 09:31:51;;;;;;;1.50;1.40;;;;;;;-145.23;100.00;58621.06;5016796;28;20232;-56
2022/05/26 09:34:21;;;;;;;2.45;1.45;;;;;;;-145.23;100.00;58621.06;5013448;28;20836;-52
2022/05/26 09:36:49;;;;;;;3.78;1.15;;;;;;;-145.23;100.00;58621.06;5026103;28;20235;-53
2022/05/26 09:39:19;;;;;;;2.35;1.25;;;;;;;-145.23;100.00;58621.06;5023435;28;20244;-52
2022/05/26 09:41:49;;;;;;;2.63;1.10;;;;;;;-145.23;100.00;58621.06;5024078;28;20247;-51
2022/05/26 09:44:31;;;;;;;1.40;1.25;;;;;;;-145.23;100.00;58621.06;5019672;28;20257;-53
2022/05/26 09:46:59;;;;;;;3.35;1.10;;;;;;;-145.23;100.00;58621.06;5014399;28;20652;-53
2022/05/26 09:49:31;;;;;;;1.58;1.17;;;;;;;-145.23;100.00;58621.06;5018168;28;20245;-53
2022/05/26 09:52:08;;;;;;;1.80;1.50;;;;;;;-145.23;100.00;58621.06;5026515;28;20737;-54
2022/05/26 09:54:35;;;;;;;0.80;0.80;;;;;;;-145.23;100.00;58621.06;5018828;28;20239;-58
2022/05/26 09:57:13;;;;;;;3.10;1.10;;;;;;;-145.23;100.00;58621.06;5019125;28;20734;-52
2022/05/26 09:59:42;;;;;;;1.27;1.15;;;;;;;-145.23;100.00;58621.06;5022864;28;20251;-52
2022/05/26 10:02:14;;;;;;;5.10;1.27;;;;;;;-145.23;100.00;58621.06;5019564;28;20244;-53
2022/05/26 10:04:57;;;;;;;1.10;1.00;;;;;;;-145.23;100.00;58621.06;5021314;28;20251;-55
2022/05/26 10:07:33;;;;;;;1.85;1.33;;;;;;;-145.23;100.00;58621.06;5030045;28;20254;-53
2022/05/26 10:10:04;;;;;;;1.15;1.08;;;;;;;-145.23;100.00;58621.06;5027728;28;20311;-53
2022/05/26 10:12:37;;;;;;;2.13;1.30;;;;;;;-145.23;100.00;58621.06;5023889;28;20616;-52
2022/05/26 10:15:11;;;;;;;3.28;1.38;;;;;;;-145.23;100.00;58621.06;5015266;28;21017;-52
2022/05/26 10:17:50;;;;;;;1.60;1.42;;;;;;;-145.23;100.00;58621.06;5024121;28;20232;-52
2022/05/26 10:20:26;;;;;;;6.00;1.48;;;;;;;-145.23;100.00;58621.06;5013430;28;20309;-52
2022/05/26 10:23:04;;;;;;;2.97;1.45;;;;;;;-145.23;100.00;58621.06;5025598;28;20259;-53
2022/05/26 10:25:35;;;;;;;1.27;1.17;;;;;;;-145.23;100.00;58621.06;5022571;28;20228;-54
2022/05/26 10:28:33;;;;;;;3.20;1.17;;;;;;;-145.23;100.00;58621.06;5009834;28;20699;-52
2022/05/26 10:31:06;;;;;;;2.13;1.20;;;;;;;-145.23;100.00;58621.06;5012674;28;20228;-52
2022/05/26 10:33:46;;;;;;;2.80;1.98;;;;;;;-145.23;100.00;58621.06;5013406;28;20325;-53
2022/05/26 10:36:20;;;;;;;2.53;1.92;;;;;;;-145.23;100.00;58621.06;5018451;28;20232;-53
2022/05/26 10:39:08;;;;;;;8.82;1.73;;;;;;;-145.23;100.00;58621.06;5024845;28;20303;-52
2022/05/26 10:41:37;;;;;;;2.28;1.75;;;;;;;-145.23;100.00;58621.06;5017603;28;20251;-52
2022/05/26 10:44:10;;;;;;;4.82;1.85;;;;;;;-145.23;100.00;58621.06;5022110;28;20310;-53
2022/05/26 10:46:41;;;;;;;1.42;1.27;;;;;;;-145.23;100.00;58621.06;5026662;28;20691;-52
2022/05/26 10:49:13;;;;;;;2.80;1.63;;;;;;;-145.23;100.00;58621.06;5013256;28;20236;-53
2022/05/26 10:51:42;;;;;;;4.32;2.00;;;;;;;-145.23;100.00;58621.06;5018623;28;20648;-53
2022/05/26 10:54:14;;;;;;;3.42;1.85;;;;;;;-145.23;100.00;58621.06;5018485;28;20653;-52
2022/05/26 10:56:43;;;;;;;5.55;1.98;;;;;;;-145.23;100.00;58621.06;5026778;28;20232;-52
2022/05/26 10:59:14;;;;;;;2.88;1.67;;;;;;;-145.23;100.00;58621.06;5024965;28;20316;-53
2022/05/26 11:01:45;;;;;;;3.40;1.70;;;;;;;-145.23;100.00;58621.06;5028034;28;20240;-53
2022/05/26 11:04:16;;;;;;;1.40;1.30;;;;;;;-145.23;100.00;58621.06;5023230;28;20225;-54
2022/05/26 11:06:44;;;;;;;2.47;1.75;;;;;;;-145.23;100.00;58621.06;5020675;28;20275;-53
2022/05/26 11:09:14;;;;;;;3.10;2.30;;;;;;;-145.23;100.00;58621.06;5023363;28;20256;-52
2022/05/26 11:11:43;;;;;;;4.35;1.60;;;;;;;-145.23;100.00;58621.06;5028858;28;20305;-52
2022/05/26 11:17:21;;;;;;;2.60;1.90;;;;;;;-145.23;100.00;58621.06;5023326;28;20236;-53
2022/05/26 11:17:22;;;;;;;2.17;1.98;;;;;;;-145.23;100.00;58621.06;5023462;28;20602;-53
2022/05/26 11:22:54;;;;;;;2.70;1.88;;;;;;;-145.23;100.00;58621.06;5010627;28;20311;-54
2022/05/26 11:25:25;;;;;;;3.03;2.17;;;;;;;-145.23;100.00;58621.06;5019258;28;20260;-52
2022/05/26 11:27:54;;;;;;;1.73;1.63;;;;;;;-145.23;100.00;58621.06;5019466;28;20229;-52
2022/05/26 11:36:09;;;;;;;7.32;2.28;;;;;;;-145.23;100.00;58621.06;5028846;28;20255;-52
2022/05/26 11:38:39;;;;;;;4.88;2.08;;;;;;;-145.23;100.00;58621.06;5024623;28;20276;-53
2022/05/26 11:41:07;;;;;;;2.22;1.45;;;;;;;-145.23;100.00;58621.06;5015319;28;20288;-53
2022/05/26 11:43:40;;;;;;;3.40;1.70;;;;;;;-145.23;100.00;58621.06;5020529;28;20262;-53
2022/05/26 11:46:08;;;;;;;2.55;1.65;;;;;;;-145.23;100.00;58621.06;5019513;28;20654;-56
2022/05/26 11:48:42;;;;;;;4.75;1.83;;;;;;;-145.23;100.00;58621.06;5026096;28;20239;-54
2022/05/26 11:51:29;;;;;;;3.60;2.22;;;;;;;-145.23;100.00;58621.06;5021086;28;20244;-52
2022/05/26 11:53:56;;;;;;;2.88;1.80;;;;;;;-145.23;100.00;58621.06;5021865;28;20319;-52
2022/05/26 11:56:46;;;;;;;6.47;1.85;;;;;;;-145.23;100.00;58621.06;5021517;28;20665;-52
2022/05/26 11:59:23;;;;;;;2.97;1.73;;;;;;;-145.23;100.00;58621.06;5017881;28;20256;-51